createdAt,value
2023-03-17T00:01:48.493Z,42.67
2023-03-17T00:06:57.264Z,44.47
2023-03-17T00:12:05.190Z,42.77
2023-03-17T00:17:15.008Z,42.77
2023-03-17T00:22:22.543Z,42.62
2023-03-17T00:27:30.910Z,42.62
2023-03-17T00:32:39.973Z,42.83
2023-03-17T00:37:49.038Z,42.30
2023-03-17T00:42:56.080Z,43.03
2023-03-17T00:48:04.766Z,42.85
2023-03-17T00:53:19.054Z,43.50
2023-03-17T00:58:34.100Z,43.13
2023-03-17T01:03:41.842Z,43.83
2023-03-17T01:08:49.275Z,43.40
2023-03-17T01:13:57.293Z,43.55
2023-03-17T01:19:05.330Z,43.73
2023-03-17T01:24:12.178Z,43.90
2023-03-17T01:29:19.775Z,44.07
2023-03-17T01:34:30.640Z,43.67
2023-03-17T01:39:40.759Z,43.65
2023-03-17T01:45:06.641Z,43.73
2023-03-17T01:50:14.429Z,43.97
2023-03-17T01:55:22.908Z,43.95
2023-03-17T02:00:31.301Z,43.87
2023-03-17T02:05:40.571Z,42.97
2023-03-17T02:10:51.763Z,44.63
2023-03-17T02:15:59.781Z,44.25
2023-03-17T02:21:31.594Z,44.00
2023-03-17T02:26:40.181Z,42.90
2023-03-17T02:31:47.586Z,43.57
2023-03-17T02:36:54.880Z,43.77
2023-03-17T02:42:02.147Z,42.67
2023-03-17T02:47:10.748Z,43.50
2023-03-17T02:52:18.182Z,43.47
2023-03-17T02:57:26.093Z,43.33
2023-03-17T03:02:33.663Z,43.60
2023-03-17T03:07:40.345Z,43.05
2023-03-17T03:12:49.215Z,42.87
2023-03-17T03:17:56.019Z,43.47
2023-03-17T03:23:04.442Z,43.90
2023-03-17T03:28:12.402Z,43.30
2023-03-17T03:33:19.602Z,43.30
2023-03-17T03:38:29.057Z,42.97
2023-03-17T03:43:36.402Z,43.52
2023-03-17T03:48:44.198Z,42.93
2023-03-17T03:53:51.337Z,43.10
2023-03-17T03:58:58.621Z,43.43
2023-03-17T04:04:05.723Z,43.07
2023-03-17T04:09:14.322Z,43.30
2023-03-17T04:14:22.684Z,43.20
2023-03-17T04:19:29.708Z,42.95
2023-03-17T04:24:37.397Z,42.97
2023-03-17T04:29:45.783Z,42.88
2023-03-17T04:34:52.865Z,42.80
2023-03-17T04:39:59.821Z,43.30
2023-03-17T04:45:10.426Z,43.47
2023-03-17T04:50:18.225Z,43.98
2023-03-17T04:55:24.726Z,43.43
2023-03-17T05:00:31.745Z,43.47
2023-03-17T05:05:38.679Z,43.40
2023-03-17T05:10:46.327Z,43.15
2023-03-17T05:15:55.945Z,42.60
2023-03-17T05:21:02.877Z,43.70
2023-03-17T05:26:09.566Z,43.30
2023-03-17T05:36:23.585Z,43.57
2023-03-17T05:41:30.498Z,43.08
2023-03-17T05:46:37.520Z,43.37
2023-03-17T05:51:44.350Z,43.90
2023-03-17T05:56:50.971Z,43.68
2023-03-17T06:01:57.934Z,44.00
2023-03-17T06:07:10.189Z,43.47
2023-03-17T06:12:18.281Z,43.57
2023-03-17T06:17:26.074Z,44.13
2023-03-17T06:22:34.569Z,43.77
2023-03-17T06:27:41.295Z,44.03
2023-03-17T06:32:48.499Z,45.47
2023-03-17T06:37:58.218Z,43.57
2023-03-17T06:43:05.556Z,44.33
2023-03-17T06:48:12.560Z,45.05
2023-03-17T06:53:19.557Z,44.30
2023-03-17T06:58:27.288Z,46.83
2023-03-17T07:03:35.779Z,43.73
2023-03-17T07:08:43.147Z,47.40
2023-03-17T07:13:51.136Z,43.80
2023-03-17T07:18:58.760Z,45.03
2023-03-17T07:24:05.419Z,45.40
2023-03-17T07:29:12.929Z,45.40
2023-03-17T07:34:23.722Z,47.05
2023-03-17T07:39:31.346Z,45.90
2023-03-17T07:44:40.080Z,45.87
2023-03-17T07:49:47.014Z,45.53
2023-03-17T07:54:54.189Z,45.40
2023-03-17T08:00:01.591Z,45.50
2023-03-17T08:05:10.483Z,45.70
2023-03-17T08:10:18.464Z,46.57
2023-03-17T08:15:25.297Z,46.23
2023-03-17T08:20:32.660Z,45.88
2023-03-17T08:25:39.629Z,46.47
2023-03-17T08:30:50.371Z,46.93
2023-03-17T08:35:59.025Z,47.17
2023-03-17T08:41:09.506Z,48.03
2023-03-17T08:46:27.297Z,46.10
2023-03-17T08:51:37.436Z,46.73
2023-03-17T08:56:44.342Z,47.73
2023-03-17T09:01:51.838Z,47.13
2023-03-17T09:07:03.643Z,48.53
2023-03-17T09:12:09.659Z,47.60
2023-03-17T09:17:16.462Z,48.37
2023-03-17T09:22:28.363Z,48.70
2023-03-17T09:27:35.970Z,48.33
2023-03-17T09:32:45.175Z,49.90
2023-03-17T09:37:52.559Z,48.50
2023-03-17T09:43:26.633Z,49.33
2023-03-17T09:49:01.692Z,49.33
2023-03-17T09:54:30.926Z,49.83
2023-03-17T09:59:44.366Z,48.83
2023-03-17T10:04:52.016Z,48.80
2023-03-17T10:10:09.390Z,48.53
2023-03-17T10:15:23.886Z,49.43
2023-03-17T10:20:34.861Z,49.30
2023-03-17T10:25:41.676Z,48.47
2023-03-17T10:30:48.531Z,49.43
2023-03-17T10:35:55.409Z,49.87
2023-03-17T10:41:10.317Z,49.30
2023-03-17T10:46:30.270Z,49.47
2023-03-17T10:51:42.024Z,48.95
2023-03-17T10:56:52.618Z,50.07
2023-03-17T11:02:06.451Z,50.10
2023-03-17T11:07:24.195Z,49.50
2023-03-17T11:12:38.852Z,50.05
2023-03-17T11:17:55.944Z,49.53
2023-03-17T11:23:28.959Z,49.97
2023-03-17T11:28:42.709Z,49.25
2023-03-17T11:34:06.303Z,49.47
2023-03-17T11:39:23.591Z,48.83
2023-03-17T11:44:56.956Z,48.98
2023-03-17T11:50:11.607Z,49.97
2023-03-17T11:55:50.280Z,49.93
2023-03-17T12:01:01.168Z,49.67
2023-03-17T12:06:15.744Z,48.53
2023-03-17T12:11:28.373Z,49.67
2023-03-17T12:16:55.927Z,49.93
2023-03-17T12:22:19.113Z,49.73
2023-03-17T12:27:37.253Z,49.26
2023-03-17T12:33:12.195Z,49.03
2023-03-17T12:38:42.369Z,50.07
2023-03-17T12:44:42.571Z,49.87
2023-03-17T12:50:12.742Z,49.57
2023-03-17T12:55:23.625Z,50.17
2023-03-17T13:00:35.222Z,51.00
2023-03-17T13:05:45.159Z,50.57
2023-03-17T13:10:52.341Z,49.90
2023-03-17T13:16:01.425Z,50.23
2023-03-17T13:21:12.648Z,49.90
2023-03-17T13:26:45.002Z,49.37
2023-03-17T13:31:51.999Z,50.03
2023-03-17T13:37:27.708Z,49.87
2023-03-17T13:43:04.633Z,49.15
2023-03-17T13:48:36.534Z,50.80
2023-03-17T13:53:51.196Z,50.33
2023-03-17T13:59:14.572Z,50.17
2023-03-17T14:04:28.023Z,49.40
2023-03-17T14:09:43.744Z,50.33
2023-03-17T14:15:17.961Z,50.43
2023-03-17T14:20:28.970Z,51.08
2023-03-17T14:25:39.442Z,50.93
2023-03-17T14:30:59.076Z,49.93
2023-03-17T14:36:14.141Z,50.50
2023-03-17T14:41:25.495Z,49.47
2023-03-17T14:46:41.296Z,51.33
2023-03-17T14:51:58.502Z,52.23
2023-03-17T15:02:38.580Z,50.55
2023-03-17T15:07:45.971Z,50.87
2023-03-17T15:13:05.011Z,50.03
2023-03-17T15:18:17.554Z,50.60
2023-03-17T15:23:27.143Z,49.00
2023-03-17T15:28:34.268Z,51.37
2023-03-17T15:33:43.035Z,50.45
2023-03-17T15:38:49.603Z,50.10
2023-03-17T15:43:57.026Z,50.40
2023-03-17T15:49:05.816Z,51.17
2023-03-17T15:54:16.015Z,49.47
2023-03-17T15:59:23.055Z,47.80
2023-03-17T16:04:30.474Z,49.03
2023-03-17T16:09:37.729Z,50.17
2023-03-17T16:14:44.833Z,48.98
2023-03-17T16:19:53.843Z,49.63
2023-03-17T16:25:03.016Z,49.60
2023-03-17T16:30:13.487Z,50.97
2023-03-17T16:35:23.502Z,52.77
2023-03-17T16:40:36.083Z,51.23
2023-03-17T16:45:43.043Z,50.17
2023-03-17T16:50:50.644Z,52.60
2023-03-17T17:01:08.060Z,36.90
2023-03-17T17:06:15.789Z,50.10
2023-03-17T17:11:23.902Z,50.20
2023-03-17T17:16:40.959Z,49.03
2023-03-17T17:21:48.499Z,49.20
2023-03-17T17:26:56.604Z,48.67
2023-03-17T17:32:04.734Z,48.73
2023-03-17T17:37:13.478Z,50.20
2023-03-17T17:42:21.390Z,48.30
2023-03-17T17:47:32.114Z,48.73
2023-03-17T17:52:39.966Z,49.20
2023-03-17T18:02:52.835Z,48.40
2023-03-17T18:08:02.568Z,49.43
2023-03-17T18:13:09.848Z,47.50
2023-03-17T18:18:17.747Z,49.03
2023-03-17T18:23:24.831Z,46.57
2023-03-17T18:28:34.196Z,48.17
2023-03-17T18:33:44.032Z,47.20
2023-03-17T18:38:51.566Z,47.97
2023-03-17T18:44:00.444Z,48.10
2023-03-17T18:49:09.245Z,50.07
2023-03-17T18:54:16.597Z,47.90
2023-03-17T18:59:23.914Z,48.87
2023-03-17T19:04:31.196Z,47.90
2023-03-17T19:09:40.512Z,46.65
2023-03-17T19:14:48.014Z,46.43
2023-03-17T19:19:55.122Z,49.07
2023-03-17T19:25:05.464Z,46.87
2023-03-17T19:30:13.795Z,47.70
2023-03-17T19:35:24.833Z,46.73
2023-03-17T19:40:35.235Z,47.53
2023-03-17T19:45:41.932Z,45.73
2023-03-17T19:50:52.265Z,46.43
2023-03-17T19:55:59.653Z,49.13
2023-03-17T20:01:09.617Z,45.63
2023-03-17T20:06:18.367Z,46.00
2023-03-17T20:11:28.740Z,46.66
2023-03-17T20:16:37.110Z,45.60
2023-03-17T20:21:44.506Z,46.83
2023-03-17T20:26:52.860Z,50.57
2023-03-17T20:32:01.573Z,47.73
2023-03-17T20:37:08.885Z,47.50
2023-03-17T20:42:15.663Z,47.37
2023-03-17T20:47:26.383Z,45.75
2023-03-17T20:52:33.584Z,47.75
2023-03-17T20:57:42.900Z,46.68
2023-03-17T21:02:50.822Z,46.23
2023-03-17T21:07:57.795Z,46.80
2023-03-17T21:13:04.717Z,46.00
2023-03-17T21:18:14.742Z,45.73
2023-03-17T21:23:23.984Z,46.02
2023-03-17T21:33:40.684Z,46.23
2023-03-17T21:38:49.552Z,45.93
2023-03-17T21:43:58.256Z,46.80
2023-03-17T21:49:05.787Z,46.67
2023-03-17T21:54:12.861Z,46.53
2023-03-17T21:59:21.776Z,46.40
2023-03-17T22:19:50.101Z,46.10
2023-03-17T22:24:57.762Z,45.77
2023-03-17T22:30:04.977Z,46.23
2023-03-17T22:35:12.201Z,46.33
2023-03-17T22:40:20.265Z,46.40
2023-03-17T22:45:28.098Z,46.10
2023-03-17T22:50:35.415Z,47.00
2023-03-17T22:55:42.342Z,49.63
2023-03-17T23:00:50.877Z,51.37
2023-03-17T23:06:00.487Z,46.90
2023-03-17T23:11:14.966Z,45.23
2023-03-17T23:16:23.361Z,46.07
2023-03-17T23:21:38.106Z,46.43
2023-03-17T23:26:45.705Z,45.43
2023-03-17T23:31:52.434Z,45.43
2023-03-17T23:36:59.800Z,48.17
2023-03-17T23:42:07.228Z,46.37
2023-03-17T23:47:15.539Z,46.10
2023-03-17T23:52:24.339Z,46.30
2023-03-17T23:57:31.903Z,45.93
